Maryland METAR Reports


Distance/Direction noted is from Ellicott City, MD as the crow flies

KCBE - Cumberland - 118 miles WNW
Updated: Sat, 10/25/2014 2:39 AM
Clear
Clear
 Wind from calm
Wind: Calm
Temperature: 41°F
Dew Point: 39°F
Humidity: 93%
Barometer: 30.04 inHg
Clouds: Clear
Visibility: 10 miles
2014/10/25 06:39 KCBE 250639Z AUTO 00000KT 10SM CLR 05/04 A3004 RMK AO1
KHGR - Hagerstown - 57 miles NW
Updated: Sat, 10/25/2014 2:53 AM
Clear
Clear
 Wind from SW
Wind: SW 7 mph
Temperature: 52°F
Dew Point: 37°F
Humidity: 58%
Barometer: 29.97 inHg
Clouds: Clear
Visibility: 10 miles
2014/10/25 06:53 KHGR 250653Z AUTO 23006KT 10SM CLR 11/03 A2997 RMK AO2 SLP156 T01110028
 
KFDK - Frederick - 34 miles NW
Updated: Sat, 10/25/2014 2:35 AM
Light snow, Clear
Light snow, Clear
 Wind from calm
Wind: Calm
Temperature: 45°F
Dew Point: 41°F
Humidity: 87%
Barometer: 29.99 inHg
Summary: Light Snow
Clouds: Clear
Visibility: 7 miles
2014/10/25 06:35 KFDK 250635Z AUTO 00000KT 7SM -SN CLR 07/05 A2999 RMK AO2
KGAI - Gaithersburg - 26 miles SW
Updated: Sat, 10/25/2014 2:55 AM
Clear
Clear
 Wind from WNW
Wind: WNW 6 mph
Temperature: 46°F
Wind Chill: 43°F
Dew Point: 36°F
Humidity: 66%
Barometer: 30.00 inHg
Clouds: Clear
Visibility: 10 miles
2014/10/25 06:55 KGAI 250655Z 29005KT 10SM CLR 08/02 A3000 RMK AO1
 
KBWI - BWI Airport - 15 miles SE
Updated: Sat, 10/25/2014 2:54 AM
Clear
Clear
 Wind from W
Wind: W 5 mph
Temperature: 46°F
Wind Chill: 44°F
Dew Point: 37°F
Humidity: 71%
Barometer: 29.94 inHg
Clouds: Clear
Visibility: 10 miles
2014/10/25 06:54 KBWI 250654Z 26004KT 10SM CLR 08/03 A2994 RMK AO2 SLP138 T00830033
KNAK - Annapolis - 32 miles SSE
Updated: Sat, 10/25/2014 2:54 AM
Clear
Clear
 Wind from W
Wind: W 5 mph
Temperature: 52°F
Dew Point: 37°F
Humidity: 58%
Barometer: 29.94 inHg
Clouds: Clear
Visibility: 10 miles
2014/10/25 06:54 KNAK 250654Z AUTO 28004KT 10SM CLR 11/03 A2994 RMK AO2 SLP140 T01060033
 
KESN - Easton - 63 miles SE
Updated: Sat, 10/25/2014 2:52 AM
Clear
Clear
 Wind from calm
Wind: Calm
Temperature: 54°F
Dew Point: 43°F
Humidity: 67%
Barometer: 29.97 inHg
Clouds: Clear
Visibility: 10 miles
2014/10/25 06:52 KESN 250652Z AUTO 00000KT 10SM CLR 12/06 A2997 RMK AO2 T01150063
KSBY - Salisbury - 112 miles SE
Updated: Sat, 10/25/2014 2:54 AM
Clear
Clear
 Wind from W
Wind: W 3 mph
Temperature: 46°F
Dew Point: 41°F
Humidity: 82%
Barometer: 29.93 inHg
Clouds: Clear
Visibility: 10 miles
2014/10/25 06:54 KSBY 250654Z AUTO 28003KT 10SM CLR 08/05 A2993 RMK AO2 SLP136 T00830050